sensor_id;sensor_type;location;lat;lon;timestamp;temperature;humidity
4002;DHT22;2015;48.670;9.060;2023-03-17T00:00:21;3.60;99.90
4002;DHT22;2015;48.670;9.060;2023-03-17T00:02:54;3.50;99.90
4002;DHT22;2015;48.670;9.060;2023-03-17T00:05:33;3.50;99.90
4002;DHT22;2015;48.670;9.060;2023-03-17T00:08:23;3.50;99.90
4002;DHT22;2015;48.670;9.060;2023-03-17T00:10:55;3.50;99.90
4002;DHT22;2015;48.670;9.060;2023-03-17T00:13:27;3.40;99.90
4002;DHT22;2015;48.670;9.060;2023-03-17T00:16:03;3.40;99.90
4002;DHT22;2015;48.670;9.060;2023-03-17T00:18:36;3.40;99.90
4002;DHT22;2015;48.670;9.060;2023-03-17T00:21:16;3.40;99.90
4002;DHT22;2015;48.670;9.060;2023-03-17T00:23:51;3.40;99.90
4002;DHT22;2015;48.670;9.060;2023-03-17T00:26:24;3.40;99.90
4002;DHT22;2015;48.670;9.060;2023-03-17T00:28:55;3.40;99.90
4002;DHT22;2015;48.670;9.060;2023-03-17T00:31:28;3.40;99.90
4002;DHT22;2015;48.670;9.060;2023-03-17T00:34:00;3.40;99.90
4002;DHT22;2015;48.670;9.060;2023-03-17T00:36:32;3.40;99.90
4002;DHT22;2015;48.670;9.060;2023-03-17T00:39:14;3.40;99.90
4002;DHT22;2015;48.670;9.060;2023-03-17T00:41:45;3.50;99.90
4002;DHT22;2015;48.670;9.060;2023-03-17T00:44:20;3.50;99.90
4002;DHT22;2015;48.670;9.060;2023-03-17T00:46:53;3.40;99.90
4002;DHT22;2015;48.670;9.060;2023-03-17T00:49:25;3.50;99.90
4002;DHT22;2015;48.670;9.060;2023-03-17T00:51:57;3.50;99.90
4002;DHT22;2015;48.670;9.060;2023-03-17T00:54:29;3.50;99.90
4002;DHT22;2015;48.670;9.060;2023-03-17T00:57:01;3.60;99.90
4002;DHT22;2015;48.670;9.060;2023-03-17T00:59:38;3.60;99.90
4002;DHT22;2015;48.670;9.060;2023-03-17T01:02:11;3.70;99.90
4002;DHT22;2015;48.670;9.060;2023-03-17T01:04:43;3.70;99.90
4002;DHT22;2015;48.670;9.060;2023-03-17T01:07:27;3.70;99.90
4002;DHT22;2015;48.670;9.060;2023-03-17T01:09:59;3.80;99.90
4002;DHT22;2015;48.670;9.060;2023-03-17T01:12:31;3.80;99.90
4002;DHT22;2015;48.670;9.060;2023-03-17T01:15:03;3.80;99.90
4002;DHT22;2015;48.670;9.060;2023-03-17T01:17:36;3.80;99.90
4002;DHT22;2015;48.670;9.060;2023-03-17T01:20:20;3.80;99.90
4002;DHT22;2015;48.670;9.060;2023-03-17T01:22:52;3.80;99.90
4002;DHT22;2015;48.670;9.060;2023-03-17T01:25:24;3.90;99.90
4002;DHT22;2015;48.670;9.060;2023-03-17T01:27:58;3.90;99.90
4002;DHT22;2015;48.670;9.060;2023-03-17T01:30:33;3.90;99.90
4002;DHT22;2015;48.670;9.060;2023-03-17T01:33:07;3.90;99.90
4002;DHT22;2015;48.670;9.060;2023-03-17T01:35:40;3.80;99.90
4002;DHT22;2015;48.670;9.060;2023-03-17T01:38:13;3.80;99.90
4002;DHT22;2015;48.670;9.060;2023-03-17T01:40:50;3.90;99.90
4002;DHT22;2015;48.670;9.060;2023-03-17T01:43:27;3.90;99.90
4002;DHT22;2015;48.670;9.060;2023-03-17T01:49:12;3.80;99.90
4002;DHT22;2015;48.670;9.060;2023-03-17T01:57:47;3.80;99.90
4002;DHT22;2015;48.670;9.060;2023-03-17T02:00:20;3.80;99.90
4002;DHT22;2015;48.670;9.060;2023-03-17T02:02:54;3.80;99.90
4002;DHT22;2015;48.670;9.060;2023-03-17T02:05:28;3.80;99.90
4002;DHT22;2015;48.670;9.060;2023-03-17T02:08:06;3.80;99.90
4002;DHT22;2015;48.670;9.060;2023-03-17T02:10:40;3.80;99.90
4002;DHT22;2015;48.670;9.060;2023-03-17T02:13:13;3.90;99.90
4002;DHT22;2015;48.670;9.060;2023-03-17T02:15:48;3.80;99.90
4002;DHT22;2015;48.670;9.060;2023-03-17T02:18:21;3.80;99.90
4002;DHT22;2015;48.670;9.060;2023-03-17T02:23:47;3.80;99.90
4002;DHT22;2015;48.670;9.060;2023-03-17T02:26:20;3.80;99.90
4002;DHT22;2015;48.670;9.060;2023-03-17T02:28:53;3.80;99.90
4002;DHT22;2015;48.670;9.060;2023-03-17T02:31:26;3.80;99.90
4002;DHT22;2015;48.670;9.060;2023-03-17T02:33:58;3.80;99.90
4002;DHT22;2015;48.670;9.060;2023-03-17T02:36:29;3.80;99.90
4002;DHT22;2015;48.670;9.060;2023-03-17T02:39:02;3.70;99.90
4002;DHT22;2015;48.670;9.060;2023-03-17T02:41:35;3.70;99.90
4002;DHT22;2015;48.670;9.060;2023-03-17T02:44:07;3.60;99.90
4002;DHT22;2015;48.670;9.060;2023-03-17T02:46:39;3.50;99.90
4002;DHT22;2015;48.670;9.060;2023-03-17T02:49:11;3.40;99.90
4002;DHT22;2015;48.670;9.060;2023-03-17T02:51:43;3.40;99.90
4002;DHT22;2015;48.670;9.060;2023-03-17T02:54:16;3.40;99.90
4002;DHT22;2015;48.670;9.060;2023-03-17T02:56:48;3.40;99.90
4002;DHT22;2015;48.670;9.060;2023-03-17T02:59:19;3.50;99.90
4002;DHT22;2015;48.670;9.060;2023-03-17T03:01:51;3.50;99.90
4002;DHT22;2015;48.670;9.060;2023-03-17T03:04:23;3.50;99.90
4002;DHT22;2015;48.670;9.060;2023-03-17T03:06:55;3.60;99.90
4002;DHT22;2015;48.670;9.060;2023-03-17T03:09:28;3.60;99.90
4002;DHT22;2015;48.670;9.060;2023-03-17T03:12:00;3.60;99.90
4002;DHT22;2015;48.670;9.060;2023-03-17T03:14:32;3.60;99.90
4002;DHT22;2015;48.670;9.060;2023-03-17T03:17:04;3.70;99.90
4002;DHT22;2015;48.670;9.060;2023-03-17T03:19:36;3.70;99.90
4002;DHT22;2015;48.670;9.060;2023-03-17T03:22:08;3.70;99.90
4002;DHT22;2015;48.670;9.060;2023-03-17T03:24:40;3.70;99.90
4002;DHT22;2015;48.670;9.060;2023-03-17T03:27:12;3.70;99.90
4002;DHT22;2015;48.670;9.060;2023-03-17T03:29:43;3.70;99.90
4002;DHT22;2015;48.670;9.060;2023-03-17T03:32:15;3.70;99.90
4002;DHT22;2015;48.670;9.060;2023-03-17T03:34:47;3.70;99.90
4002;DHT22;2015;48.670;9.060;2023-03-17T03:37:20;3.70;99.90
4002;DHT22;2015;48.670;9.060;2023-03-17T03:39:52;3.70;99.90
4002;DHT22;2015;48.670;9.060;2023-03-17T03:42:24;3.60;99.90
4002;DHT22;2015;48.670;9.060;2023-03-17T03:44:56;3.60;99.90
4002;DHT22;2015;48.670;9.060;2023-03-17T03:47:27;3.50;99.90
4002;DHT22;2015;48.670;9.060;2023-03-17T03:49:59;3.50;99.90
4002;DHT22;2015;48.670;9.060;2023-03-17T03:52:31;3.50;99.90
4002;DHT22;2015;48.670;9.060;2023-03-17T03:55:03;3.50;99.90
4002;DHT22;2015;48.670;9.060;2023-03-17T03:57:35;3.40;99.90
4002;DHT22;2015;48.670;9.060;2023-03-17T04:00:08;3.40;99.90
4002;DHT22;2015;48.670;9.060;2023-03-17T04:02:41;3.40;99.90
4002;DHT22;2015;48.670;9.060;2023-03-17T04:05:16;3.40;99.90
4002;DHT22;2015;48.670;9.060;2023-03-17T04:07:49;3.30;99.90
4002;DHT22;2015;48.670;9.060;2023-03-17T04:10:21;3.30;99.90
4002;DHT22;2015;48.670;9.060;2023-03-17T04:12:53;3.30;99.90
4002;DHT22;2015;48.670;9.060;2023-03-17T04:15:26;3.30;99.90
4002;DHT22;2015;48.670;9.060;2023-03-17T04:17:58;3.30;99.90
4002;DHT22;2015;48.670;9.060;2023-03-17T04:20:30;3.30;99.90
4002;DHT22;2015;48.670;9.060;2023-03-17T04:23:02;3.30;99.90
4002;DHT22;2015;48.670;9.060;2023-03-17T04:25:34;3.30;99.90
4002;DHT22;2015;48.670;9.060;2023-03-17T04:28:06;3.20;99.90
4002;DHT22;2015;48.670;9.060;2023-03-17T04:30:39;3.20;99.90
4002;DHT22;2015;48.670;9.060;2023-03-17T04:33:12;3.10;99.90
4002;DHT22;2015;48.670;9.060;2023-03-17T04:35:44;3.10;99.90
4002;DHT22;2015;48.670;9.060;2023-03-17T04:38:16;3.10;99.90
4002;DHT22;2015;48.670;9.060;2023-03-17T04:40:49;3.20;99.90
4002;DHT22;2015;48.670;9.060;2023-03-17T04:43:20;3.10;99.90
4002;DHT22;2015;48.670;9.060;2023-03-17T04:45:52;3.10;99.90
4002;DHT22;2015;48.670;9.060;2023-03-17T04:48:24;3.10;99.90
4002;DHT22;2015;48.670;9.060;2023-03-17T04:50:56;3.10;99.90
4002;DHT22;2015;48.670;9.060;2023-03-17T04:53:28;3.00;99.90
4002;DHT22;2015;48.670;9.060;2023-03-17T04:56:00;3.00;99.90
4002;DHT22;2015;48.670;9.060;2023-03-17T04:58:31;2.90;99.90
4002;DHT22;2015;48.670;9.060;2023-03-17T05:01:03;2.90;99.90
4002;DHT22;2015;48.670;9.060;2023-03-17T05:03:35;2.80;99.90
4002;DHT22;2015;48.670;9.060;2023-03-17T05:06:07;2.80;99.90
4002;DHT22;2015;48.670;9.060;2023-03-17T05:08:39;2.70;99.90
4002;DHT22;2015;48.670;9.060;2023-03-17T05:11:11;2.70;99.90
4002;DHT22;2015;48.670;9.060;2023-03-17T05:13:43;2.70;99.90
4002;DHT22;2015;48.670;9.060;2023-03-17T05:16:15;2.70;99.90
4002;DHT22;2015;48.670;9.060;2023-03-17T05:18:47;2.70;99.90
4002;DHT22;2015;48.670;9.060;2023-03-17T05:21:19;2.60;99.90
4002;DHT22;2015;48.670;9.060;2023-03-17T05:23:51;2.70;99.90
4002;DHT22;2015;48.670;9.060;2023-03-17T05:26:25;2.60;99.90
4002;DHT22;2015;48.670;9.060;2023-03-17T05:28:57;2.60;99.90
4002;DHT22;2015;48.670;9.060;2023-03-17T05:31:29;2.70;99.90
4002;DHT22;2015;48.670;9.060;2023-03-17T05:34:02;2.70;99.90
4002;DHT22;2015;48.670;9.060;2023-03-17T05:36:35;2.70;99.90
4002;DHT22;2015;48.670;9.060;2023-03-17T05:39:08;2.70;99.90
4002;DHT22;2015;48.670;9.060;2023-03-17T05:41:39;2.70;99.90
4002;DHT22;2015;48.670;9.060;2023-03-17T05:44:11;2.70;99.90
4002;DHT22;2015;48.670;9.060;2023-03-17T05:46:43;2.80;99.90
4002;DHT22;2015;48.670;9.060;2023-03-17T05:49:16;2.80;99.90
4002;DHT22;2015;48.670;9.060;2023-03-17T05:51:49;2.80;99.90
4002;DHT22;2015;48.670;9.060;2023-03-17T05:54:21;2.80;99.90
4002;DHT22;2015;48.670;9.060;2023-03-17T05:56:54;2.80;99.90
4002;DHT22;2015;48.670;9.060;2023-03-17T05:59:26;2.80;99.90
4002;DHT22;2015;48.670;9.060;2023-03-17T06:01:58;2.90;99.90
4002;DHT22;2015;48.670;9.060;2023-03-17T06:04:30;2.90;99.90
4002;DHT22;2015;48.670;9.060;2023-03-17T06:07:03;2.90;99.90
4002;DHT22;2015;48.670;9.060;2023-03-17T06:09:35;3.00;99.90
4002;DHT22;2015;48.670;9.060;2023-03-17T06:12:07;3.00;99.90
4002;DHT22;2015;48.670;9.060;2023-03-17T06:14:39;3.00;99.90
4002;DHT22;2015;48.670;9.060;2023-03-17T06:17:11;3.00;99.90
4002;DHT22;2015;48.670;9.060;2023-03-17T06:19:43;3.10;99.90
4002;DHT22;2015;48.670;9.060;2023-03-17T06:22:16;3.10;99.90
4002;DHT22;2015;48.670;9.060;2023-03-17T06:24:48;3.10;99.90
4002;DHT22;2015;48.670;9.060;2023-03-17T06:27:20;3.10;99.90
4002;DHT22;2015;48.670;9.060;2023-03-17T06:29:52;3.20;99.90
4002;DHT22;2015;48.670;9.060;2023-03-17T06:32:24;3.20;99.90
4002;DHT22;2015;48.670;9.060;2023-03-17T06:34:56;3.20;99.90
4002;DHT22;2015;48.670;9.060;2023-03-17T06:37:28;3.20;99.90
4002;DHT22;2015;48.670;9.060;2023-03-17T06:40:00;3.30;99.90
4002;DHT22;2015;48.670;9.060;2023-03-17T06:42:32;3.30;99.90
4002;DHT22;2015;48.670;9.060;2023-03-17T06:45:04;3.40;99.90
4002;DHT22;2015;48.670;9.060;2023-03-17T06:47:36;3.40;99.90
4002;DHT22;2015;48.670;9.060;2023-03-17T06:50:08;3.50;99.90
4002;DHT22;2015;48.670;9.060;2023-03-17T06:52:40;3.60;99.90
4002;DHT22;2015;48.670;9.060;2023-03-17T06:55:12;4.00;99.90
4002;DHT22;2015;48.670;9.060;2023-03-17T06:57:44;4.20;99.90
4002;DHT22;2015;48.670;9.060;2023-03-17T07:00:17;4.80;99.90
4002;DHT22;2015;48.670;9.060;2023-03-17T07:02:48;5.30;99.90
4002;DHT22;2015;48.670;9.060;2023-03-17T07:05:20;5.60;99.90
4002;DHT22;2015;48.670;9.060;2023-03-17T07:07:53;5.80;99.90
4002;DHT22;2015;48.670;9.060;2023-03-17T07:10:25;5.90;99.90
4002;DHT22;2015;48.670;9.060;2023-03-17T07:12:56;6.10;99.90
4002;DHT22;2015;48.670;9.060;2023-03-17T07:15:28;6.20;99.90
4002;DHT22;2015;48.670;9.060;2023-03-17T07:18:05;6.20;99.90
4002;DHT22;2015;48.670;9.060;2023-03-17T07:20:37;6.20;99.90
4002;DHT22;2015;48.670;9.060;2023-03-17T07:23:19;6.10;99.90
4002;DHT22;2015;48.670;9.060;2023-03-17T07:25:51;6.20;99.90
4002;DHT22;2015;48.670;9.060;2023-03-17T07:28:23;6.20;99.90
4002;DHT22;2015;48.670;9.060;2023-03-17T07:30:55;6.30;99.90
4002;DHT22;2015;48.670;9.060;2023-03-17T07:33:28;6.40;99.90
4002;DHT22;2015;48.670;9.060;2023-03-17T07:36:01;6.60;99.90
4002;DHT22;2015;48.670;9.060;2023-03-17T07:38:33;6.60;99.90
4002;DHT22;2015;48.670;9.060;2023-03-17T07:41:05;6.80;99.90
4002;DHT22;2015;48.670;9.060;2023-03-17T07:43:40;7.00;99.90
4002;DHT22;2015;48.670;9.060;2023-03-17T07:46:12;7.20;99.90
4002;DHT22;2015;48.670;9.060;2023-03-17T07:48:44;7.30;99.90
4002;DHT22;2015;48.670;9.060;2023-03-17T07:51:19;7.40;99.90
4002;DHT22;2015;48.670;9.060;2023-03-17T07:53:52;7.50;99.90
4002;DHT22;2015;48.670;9.060;2023-03-17T07:56:25;7.70;99.90
4002;DHT22;2015;48.670;9.060;2023-03-17T07:58:58;7.80;99.90
4002;DHT22;2015;48.670;9.060;2023-03-17T08:01:30;7.80;99.90
4002;DHT22;2015;48.670;9.060;2023-03-17T08:04:03;7.90;99.90
4002;DHT22;2015;48.670;9.060;2023-03-17T08:06:35;7.90;99.90
4002;DHT22;2015;48.670;9.060;2023-03-17T08:09:08;8.00;99.90
4002;DHT22;2015;48.670;9.060;2023-03-17T08:11:41;8.10;99.90
4002;DHT22;2015;48.670;9.060;2023-03-17T08:14:13;8.20;99.90
4002;DHT22;2015;48.670;9.060;2023-03-17T08:16:44;8.30;99.90
4002;DHT22;2015;48.670;9.060;2023-03-17T08:19:16;8.40;99.90
4002;DHT22;2015;48.670;9.060;2023-03-17T08:21:49;8.60;99.90
4002;DHT22;2015;48.670;9.060;2023-03-17T08:24:21;8.60;99.90
4002;DHT22;2015;48.670;9.060;2023-03-17T08:26:52;8.70;99.90
4002;DHT22;2015;48.670;9.060;2023-03-17T08:29:24;8.80;99.90
4002;DHT22;2015;48.670;9.060;2023-03-17T08:31:56;8.90;99.90
4002;DHT22;2015;48.670;9.060;2023-03-17T08:34:28;9.00;99.90
4002;DHT22;2015;48.670;9.060;2023-03-17T08:37:01;9.20;99.90
4002;DHT22;2015;48.670;9.060;2023-03-17T08:39:33;9.30;99.90
4002;DHT22;2015;48.670;9.060;2023-03-17T08:42:05;9.20;99.90
4002;DHT22;2015;48.670;9.060;2023-03-17T08:44:37;9.20;99.90
4002;DHT22;2015;48.670;9.060;2023-03-17T08:47:09;9.20;99.90
4002;DHT22;2015;48.670;9.060;2023-03-17T08:49:41;9.20;99.90
4002;DHT22;2015;48.670;9.060;2023-03-17T08:52:15;9.20;99.90
4002;DHT22;2015;48.670;9.060;2023-03-17T08:54:47;9.30;99.90
4002;DHT22;2015;48.670;9.060;2023-03-17T08:57:19;9.60;99.90
4002;DHT22;2015;48.670;9.060;2023-03-17T08:59:51;9.70;99.90
4002;DHT22;2015;48.670;9.060;2023-03-17T09:02:23;9.80;99.90
4002;DHT22;2015;48.670;9.060;2023-03-17T09:04:55;10.00;99.90
4002;DHT22;2015;48.670;9.060;2023-03-17T09:07:27;10.10;99.90
4002;DHT22;2015;48.670;9.060;2023-03-17T09:09:59;10.20;99.90
4002;DHT22;2015;48.670;9.060;2023-03-17T09:12:31;10.40;99.90
4002;DHT22;2015;48.670;9.060;2023-03-17T09:15:05;10.70;99.90
4002;DHT22;2015;48.670;9.060;2023-03-17T09:17:38;10.90;99.90
4002;DHT22;2015;48.670;9.060;2023-03-17T09:20:10;11.20;99.90
4002;DHT22;2015;48.670;9.060;2023-03-17T09:22:42;11.30;99.90
4002;DHT22;2015;48.670;9.060;2023-03-17T09:25:15;11.40;99.90
4002;DHT22;2015;48.670;9.060;2023-03-17T09:27:46;11.50;99.90
4002;DHT22;2015;48.670;9.060;2023-03-17T09:30:18;11.60;99.90
4002;DHT22;2015;48.670;9.060;2023-03-17T09:32:50;11.60;99.90
4002;DHT22;2015;48.670;9.060;2023-03-17T09:35:22;11.80;99.90
4002;DHT22;2015;48.670;9.060;2023-03-17T09:37:54;11.80;99.90
4002;DHT22;2015;48.670;9.060;2023-03-17T09:40:31;11.70;99.90
4002;DHT22;2015;48.670;9.060;2023-03-17T09:45:45;11.50;99.90
4002;DHT22;2015;48.670;9.060;2023-03-17T09:51:09;12.10;99.90
4002;DHT22;2015;48.670;9.060;2023-03-17T09:53:51;12.60;99.90
4002;DHT22;2015;48.670;9.060;2023-03-17T09:56:27;13.10;99.90
4002;DHT22;2015;48.670;9.060;2023-03-17T09:59:32;13.90;99.90
4002;DHT22;2015;48.670;9.060;2023-03-17T10:04:49;18.10;99.50
4002;DHT22;2015;48.670;9.060;2023-03-17T10:07:44;19.70;95.00
4002;DHT22;2015;48.670;9.060;2023-03-17T10:10:34;20.90;93.70
4002;DHT22;2015;48.670;9.060;2023-03-17T10:16:07;21.40;90.70
4002;DHT22;2015;48.670;9.060;2023-03-17T10:18:51;21.00;90.10
4002;DHT22;2015;48.670;9.060;2023-03-17T10:21:28;20.60;90.00
4002;DHT22;2015;48.670;9.060;2023-03-17T10:24:02;19.90;88.50
4002;DHT22;2015;48.670;9.060;2023-03-17T10:27:04;20.10;90.20
4002;DHT22;2015;48.670;9.060;2023-03-17T10:29:36;20.50;87.10
4002;DHT22;2015;48.670;9.060;2023-03-17T10:32:10;20.00;90.30
4002;DHT22;2015;48.670;9.060;2023-03-17T10:34:43;19.70;91.30
4002;DHT22;2015;48.670;9.060;2023-03-17T10:37:19;19.60;92.60
4002;DHT22;2015;48.670;9.060;2023-03-17T10:39:55;19.60;91.90
4002;DHT22;2015;48.670;9.060;2023-03-17T10:42:29;20.20;90.70
4002;DHT22;2015;48.670;9.060;2023-03-17T10:45:28;20.50;92.30
4002;DHT22;2015;48.670;9.060;2023-03-17T10:48:01;20.70;91.40
4002;DHT22;2015;48.670;9.060;2023-03-17T10:50:39;20.60;89.60
4002;DHT22;2015;48.670;9.060;2023-03-17T10:53:20;20.70;89.60
4002;DHT22;2015;48.670;9.060;2023-03-17T10:56:06;20.80;87.00
4002;DHT22;2015;48.670;9.060;2023-03-17T10:58:42;20.60;85.80
4002;DHT22;2015;48.670;9.060;2023-03-17T11:03:50;20.00;86.00
4002;DHT22;2015;48.670;9.060;2023-03-17T11:06:36;19.80;90.00
4002;DHT22;2015;48.670;9.060;2023-03-17T11:09:14;19.60;90.60
4002;DHT22;2015;48.670;9.060;2023-03-17T11:11:49;19.50;85.90
4002;DHT22;2015;48.670;9.060;2023-03-17T11:14:29;19.40;90.60
4002;DHT22;2015;48.670;9.060;2023-03-17T11:17:03;19.90;86.40
4002;DHT22;2015;48.670;9.060;2023-03-17T11:22:40;19.80;82.80
4002;DHT22;2015;48.670;9.060;2023-03-17T11:25:14;20.00;81.40
4002;DHT22;2015;48.670;9.060;2023-03-17T11:28:12;19.90;82.30
4002;DHT22;2015;48.670;9.060;2023-03-17T11:31:06;19.70;83.20
4002;DHT22;2015;48.670;9.060;2023-03-17T11:42:20;19.70;78.70
4002;DHT22;2015;48.670;9.060;2023-03-17T11:47:40;19.40;78.40
4002;DHT22;2015;48.670;9.060;2023-03-17T11:56:32;18.70;83.80
4002;DHT22;2015;48.670;9.060;2023-03-17T11:59:01;18.50;91.00
4002;DHT22;2015;48.670;9.060;2023-03-17T12:01:46;18.40;86.00
4002;DHT22;2015;48.670;9.060;2023-03-17T12:04:29;18.20;86.80
4002;DHT22;2015;48.670;9.060;2023-03-17T12:07:35;18.20;86.70
4002;DHT22;2015;48.670;9.060;2023-03-17T12:16:06;18.20;85.40
4002;DHT22;2015;48.670;9.060;2023-03-17T12:24:19;18.20;83.90
4002;DHT22;2015;48.670;9.060;2023-03-17T12:26:54;18.20;83.50
4002;DHT22;2015;48.670;9.060;2023-03-17T12:29:42;18.10;84.40
4002;DHT22;2015;48.670;9.060;2023-03-17T12:34:57;18.10;79.80
4002;DHT22;2015;48.670;9.060;2023-03-17T12:37:29;18.10;84.00
4002;DHT22;2015;48.670;9.060;2023-03-17T12:53:41;18.40;83.90
4002;DHT22;2015;48.670;9.060;2023-03-17T12:59:01;18.00;84.80
4002;DHT22;2015;48.670;9.060;2023-03-17T13:01:42;17.90;81.50
4002;DHT22;2015;48.670;9.060;2023-03-17T13:07:23;17.80;86.50
4002;DHT22;2015;48.670;9.060;2023-03-17T13:15:32;18.00;87.50
4002;DHT22;2015;48.670;9.060;2023-03-17T13:26:12;18.20;85.10
4002;DHT22;2015;48.670;9.060;2023-03-17T13:28:46;18.20;85.40
4002;DHT22;2015;48.670;9.060;2023-03-17T13:31:31;18.10;87.60
4002;DHT22;2015;48.670;9.060;2023-03-17T13:36:52;18.00;84.60
4002;DHT22;2015;48.670;9.060;2023-03-17T13:42:25;18.00;83.90
4002;DHT22;2015;48.670;9.060;2023-03-17T13:47:48;18.20;85.20
4002;DHT22;2015;48.670;9.060;2023-03-17T13:50:24;18.40;85.60
4002;DHT22;2015;48.670;9.060;2023-03-17T13:53:02;18.50;86.90
4002;DHT22;2015;48.670;9.060;2023-03-17T13:55:42;18.50;86.60
4002;DHT22;2015;48.670;9.060;2023-03-17T13:59:11;18.40;85.60
4002;DHT22;2015;48.670;9.060;2023-03-17T14:01:40;18.30;86.40
4002;DHT22;2015;48.670;9.060;2023-03-17T14:04:23;18.10;85.50
4002;DHT22;2015;48.670;9.060;2023-03-17T14:06:58;18.20;87.70
4002;DHT22;2015;48.670;9.060;2023-03-17T14:09:37;18.20;86.50
4002;DHT22;2015;48.670;9.060;2023-03-17T14:12:23;18.30;86.70
4002;DHT22;2015;48.670;9.060;2023-03-17T14:17:52;18.10;85.40
4002;DHT22;2015;48.670;9.060;2023-03-17T14:20:27;17.90;85.10
4002;DHT22;2015;48.670;9.060;2023-03-17T14:23:01;17.80;85.30
4002;DHT22;2015;48.670;9.060;2023-03-17T14:25:36;17.70;90.90
4002;DHT22;2015;48.670;9.060;2023-03-17T14:28:14;17.70;86.00
4002;DHT22;2015;48.670;9.060;2023-03-17T14:30:52;17.70;86.80
4002;DHT22;2015;48.670;9.060;2023-03-17T14:33:30;17.70;89.00
4002;DHT22;2015;48.670;9.060;2023-03-17T14:36:06;17.70;86.10
4002;DHT22;2015;48.670;9.060;2023-03-17T14:38:54;17.70;88.80
4002;DHT22;2015;48.670;9.060;2023-03-17T14:41:27;17.70;86.80
4002;DHT22;2015;48.670;9.060;2023-03-17T14:44:00;17.60;87.60
4002;DHT22;2015;48.670;9.060;2023-03-17T14:46:35;17.50;89.70
4002;DHT22;2015;48.670;9.060;2023-03-17T14:49:16;17.50;90.30
4002;DHT22;2015;48.670;9.060;2023-03-17T14:51:50;17.80;84.30
4002;DHT22;2015;48.670;9.060;2023-03-17T14:54:26;17.80;88.20
4002;DHT22;2015;48.670;9.060;2023-03-17T14:57:05;17.90;84.40
4002;DHT22;2015;48.670;9.060;2023-03-17T14:59:40;17.90;86.30
4002;DHT22;2015;48.670;9.060;2023-03-17T15:02:33;17.70;91.70
4002;DHT22;2015;48.670;9.060;2023-03-17T15:05:11;17.70;90.00
4002;DHT22;2015;48.670;9.060;2023-03-17T15:07:51;17.60;90.30
4002;DHT22;2015;48.670;9.060;2023-03-17T15:10:25;17.50;90.10
4002;DHT22;2015;48.670;9.060;2023-03-17T15:13:03;17.50;90.70
4002;DHT22;2015;48.670;9.060;2023-03-17T15:15:38;17.40;91.60
4002;DHT22;2015;48.670;9.060;2023-03-17T15:18:16;17.30;91.50
4002;DHT22;2015;48.670;9.060;2023-03-17T15:20:49;17.20;92.60
4002;DHT22;2015;48.670;9.060;2023-03-17T15:23:22;17.20;92.60
4002;DHT22;2015;48.670;9.060;2023-03-17T15:25:56;17.30;92.20
4002;DHT22;2015;48.670;9.060;2023-03-17T15:28:29;17.30;93.10
4002;DHT22;2015;48.670;9.060;2023-03-17T15:31:11;17.10;92.70
4002;DHT22;2015;48.670;9.060;2023-03-17T15:33:43;17.00;94.10
4002;DHT22;2015;48.670;9.060;2023-03-17T15:36:16;16.80;93.70
4002;DHT22;2015;48.670;9.060;2023-03-17T15:39:02;16.80;94.60
4002;DHT22;2015;48.670;9.060;2023-03-17T15:41:34;16.80;94.30
4002;DHT22;2015;48.670;9.060;2023-03-17T15:44:06;16.70;95.10
4002;DHT22;2015;48.670;9.060;2023-03-17T15:46:37;16.60;95.20
4002;DHT22;2015;48.670;9.060;2023-03-17T15:49:10;16.40;94.90
4002;DHT22;2015;48.670;9.060;2023-03-17T15:51:42;16.30;94.90
4002;DHT22;2015;48.670;9.060;2023-03-17T15:54:14;16.30;93.70
4002;DHT22;2015;48.670;9.060;2023-03-17T15:56:46;16.20;94.60
4002;DHT22;2015;48.670;9.060;2023-03-17T15:59:18;16.10;95.00
4002;DHT22;2015;48.670;9.060;2023-03-17T16:01:49;16.10;95.90
4002;DHT22;2015;48.670;9.060;2023-03-17T16:04:21;16.10;94.80
4002;DHT22;2015;48.670;9.060;2023-03-17T16:06:53;16.20;95.50
4002;DHT22;2015;48.670;9.060;2023-03-17T16:09:25;16.10;96.90
4002;DHT22;2015;48.670;9.060;2023-03-17T16:11:57;16.00;97.30
4002;DHT22;2015;48.670;9.060;2023-03-17T16:14:28;15.80;97.50
4002;DHT22;2015;48.670;9.060;2023-03-17T16:17:00;15.70;98.10
4002;DHT22;2015;48.670;9.060;2023-03-17T16:19:32;15.60;98.20
4002;DHT22;2015;48.670;9.060;2023-03-17T16:22:07;15.40;98.60
4002;DHT22;2015;48.670;9.060;2023-03-17T16:24:46;15.20;98.50
4002;DHT22;2015;48.670;9.060;2023-03-17T16:27:17;15.10;99.70
4002;DHT22;2015;48.670;9.060;2023-03-17T16:29:49;14.90;99.90
4002;DHT22;2015;48.670;9.060;2023-03-17T16:32:21;14.80;99.90
4002;DHT22;2015;48.670;9.060;2023-03-17T16:34:53;14.60;99.90
4002;DHT22;2015;48.670;9.060;2023-03-17T16:37:25;14.40;99.90
4002;DHT22;2015;48.670;9.060;2023-03-17T16:39:56;14.30;99.90
4002;DHT22;2015;48.670;9.060;2023-03-17T16:42:28;14.20;99.90
4002;DHT22;2015;48.670;9.060;2023-03-17T16:45:02;14.20;99.90
4002;DHT22;2015;48.670;9.060;2023-03-17T16:47:34;14.10;99.90
4002;DHT22;2015;48.670;9.060;2023-03-17T16:50:13;14.10;99.90
4002;DHT22;2015;48.670;9.060;2023-03-17T16:52:46;13.90;99.90
4002;DHT22;2015;48.670;9.060;2023-03-17T16:55:18;13.90;99.90
4002;DHT22;2015;48.670;9.060;2023-03-17T16:57:53;13.90;99.90
4002;DHT22;2015;48.670;9.060;2023-03-17T17:00:28;13.80;99.90
4002;DHT22;2015;48.670;9.060;2023-03-17T17:03:00;13.70;99.90
4002;DHT22;2015;48.670;9.060;2023-03-17T17:05:32;13.60;99.90
4002;DHT22;2015;48.670;9.060;2023-03-17T17:08:04;13.60;99.90
4002;DHT22;2015;48.670;9.060;2023-03-17T17:10:37;13.50;99.90
4002;DHT22;2015;48.670;9.060;2023-03-17T17:13:10;13.50;99.90
4002;DHT22;2015;48.670;9.060;2023-03-17T17:15:42;13.40;99.90
4002;DHT22;2015;48.670;9.060;2023-03-17T17:18:17;13.40;99.90
4002;DHT22;2015;48.670;9.060;2023-03-17T17:20:52;13.30;99.90
4002;DHT22;2015;48.670;9.060;2023-03-17T17:23:25;13.30;99.90
4002;DHT22;2015;48.670;9.060;2023-03-17T17:25:57;13.20;99.90
4002;DHT22;2015;48.670;9.060;2023-03-17T17:28:29;13.50;99.90
4002;DHT22;2015;48.670;9.060;2023-03-17T17:31:01;13.90;99.90
4002;DHT22;2015;48.670;9.060;2023-03-17T17:33:35;13.90;99.90
4002;DHT22;2015;48.670;9.060;2023-03-17T17:36:12;13.80;99.90
4002;DHT22;2015;48.670;9.060;2023-03-17T17:38:45;13.80;99.90
4002;DHT22;2015;48.670;9.060;2023-03-17T17:41:17;13.70;99.90
4002;DHT22;2015;48.670;9.060;2023-03-17T17:43:52;13.70;99.90
4002;DHT22;2015;48.670;9.060;2023-03-17T17:46:24;13.60;99.90
4002;DHT22;2015;48.670;9.060;2023-03-17T17:48:56;13.50;99.90
4002;DHT22;2015;48.670;9.060;2023-03-17T17:51:28;13.30;99.90
4002;DHT22;2015;48.670;9.060;2023-03-17T17:54:00;13.40;99.90
4002;DHT22;2015;48.670;9.060;2023-03-17T17:56:32;13.30;99.90
4002;DHT22;2015;48.670;9.060;2023-03-17T17:59:08;13.10;99.90
4002;DHT22;2015;48.670;9.060;2023-03-17T18:01:40;12.90;99.90
4002;DHT22;2015;48.670;9.060;2023-03-17T18:04:12;12.90;99.90
4002;DHT22;2015;48.670;9.060;2023-03-17T18:06:44;12.80;99.90
4002;DHT22;2015;48.670;9.060;2023-03-17T18:09:16;12.60;99.90
4002;DHT22;2015;48.670;9.060;2023-03-17T18:11:52;12.50;99.90
4002;DHT22;2015;48.670;9.060;2023-03-17T18:14:24;12.40;99.90
4002;DHT22;2015;48.670;9.060;2023-03-17T18:16:55;12.30;99.90
4002;DHT22;2015;48.670;9.060;2023-03-17T18:19:27;12.20;99.90
4002;DHT22;2015;48.670;9.060;2023-03-17T18:21:59;12.20;99.90
4002;DHT22;2015;48.670;9.060;2023-03-17T18:24:31;12.10;99.90
4002;DHT22;2015;48.670;9.060;2023-03-17T18:27:03;12.00;99.90
4002;DHT22;2015;48.670;9.060;2023-03-17T18:29:34;12.00;99.90
4002;DHT22;2015;48.670;9.060;2023-03-17T18:32:07;11.90;99.90
4002;DHT22;2015;48.670;9.060;2023-03-17T18:34:46;12.00;99.90
4002;DHT22;2015;48.670;9.060;2023-03-17T18:37:18;12.20;99.90
4002;DHT22;2015;48.670;9.060;2023-03-17T18:39:51;12.20;99.90